sensor_id;sensor_type;location;lat;lon;timestamp;P1;durP1;ratioP1;P2;durP2;ratioP2
39188;SDS011;24915;50.858;4.376;2023-06-22T00:02:13;4.63;;;3.97;;
39188;SDS011;24915;50.858;4.376;2023-06-22T00:04:39;7.88;;;3.97;;
39188;SDS011;24915;50.858;4.376;2023-06-22T00:07:05;5.90;;;4.00;;
39188;SDS011;24915;50.858;4.376;2023-06-22T00:09:32;5.60;;;3.92;;
39188;SDS011;24915;50.858;4.376;2023-06-22T00:11:58;3.95;;;3.53;;
39188;SDS011;24915;50.858;4.376;2023-06-22T00:14:24;5.45;;;4.40;;
39188;SDS011;24915;50.858;4.376;2023-06-22T00:16:51;5.03;;;3.75;;
39188;SDS011;24915;50.858;4.376;2023-06-22T00:19:22;5.03;;;3.83;;
39188;SDS011;24915;50.858;4.376;2023-06-22T00:21:48;5.45;;;4.10;;
39188;SDS011;24915;50.858;4.376;2023-06-22T00:24:18;7.25;;;4.20;;
39188;SDS011;24915;50.858;4.376;2023-06-22T00:26:44;10.40;;;4.25;;
39188;SDS011;24915;50.858;4.376;2023-06-22T00:29:10;6.88;;;4.38;;
39188;SDS011;24915;50.858;4.376;2023-06-22T00:31:36;4.40;;;4.10;;
39188;SDS011;24915;50.858;4.376;2023-06-22T00:34:02;7.30;;;4.68;;
39188;SDS011;24915;50.858;4.376;2023-06-22T00:36:28;8.48;;;4.68;;
39188;SDS011;24915;50.858;4.376;2023-06-22T00:38:54;6.53;;;4.70;;
39188;SDS011;24915;50.858;4.376;2023-06-22T00:41:20;6.95;;;4.97;;
39188;SDS011;24915;50.858;4.376;2023-06-22T00:43:46;6.22;;;5.25;;
39188;SDS011;24915;50.858;4.376;2023-06-22T00:46:12;7.22;;;5.93;;
39188;SDS011;24915;50.858;4.376;2023-06-22T00:48:38;9.35;;;4.90;;
39188;SDS011;24915;50.858;4.376;2023-06-22T00:51:06;6.22;;;4.90;;
39188;SDS011;24915;50.858;4.376;2023-06-22T00:53:33;7.38;;;4.85;;
39188;SDS011;24915;50.858;4.376;2023-06-22T00:56:00;5.30;;;4.80;;
39188;SDS011;24915;50.858;4.376;2023-06-22T00:58:28;6.10;;;5.38;;
39188;SDS011;24915;50.858;4.376;2023-06-22T01:00:54;6.50;;;4.75;;
39188;SDS011;24915;50.858;4.376;2023-06-22T01:03:20;5.18;;;4.57;;
39188;SDS011;24915;50.858;4.376;2023-06-22T01:05:46;5.57;;;4.82;;
39188;SDS011;24915;50.858;4.376;2023-06-22T01:10:45;6.07;;;4.75;;
39188;SDS011;24915;50.858;4.376;2023-06-22T01:13:25;6.18;;;5.35;;
39188;SDS011;24915;50.858;4.376;2023-06-22T01:16:00;7.38;;;4.95;;
39188;SDS011;24915;50.858;4.376;2023-06-22T01:18:26;6.15;;;4.50;;
39188;SDS011;24915;50.858;4.376;2023-06-22T01:20:54;5.68;;;4.90;;
39188;SDS011;24915;50.858;4.376;2023-06-22T01:31:08;6.30;;;4.70;;
39188;SDS011;24915;50.858;4.376;2023-06-22T01:33:37;8.82;;;5.07;;
39188;SDS011;24915;50.858;4.376;2023-06-22T01:36:03;7.80;;;4.68;;
39188;SDS011;24915;50.858;4.376;2023-06-22T01:38:30;5.30;;;4.40;;
39188;SDS011;24915;50.858;4.376;2023-06-22T01:40:57;7.10;;;4.90;;
39188;SDS011;24915;50.858;4.376;2023-06-22T01:43:24;5.50;;;4.75;;
39188;SDS011;24915;50.858;4.376;2023-06-22T01:45:51;6.60;;;4.95;;
39188;SDS011;24915;50.858;4.376;2023-06-22T01:48:17;6.88;;;5.18;;
39188;SDS011;24915;50.858;4.376;2023-06-22T01:50:43;5.57;;;5.00;;
39188;SDS011;24915;50.858;4.376;2023-06-22T01:53:10;6.57;;;5.22;;
39188;SDS011;24915;50.858;4.376;2023-06-22T01:55:36;6.63;;;5.00;;
39188;SDS011;24915;50.858;4.376;2023-06-22T01:58:02;6.25;;;5.05;;
39188;SDS011;24915;50.858;4.376;2023-06-22T02:00:28;9.20;;;5.10;;
39188;SDS011;24915;50.858;4.376;2023-06-22T02:02:57;8.38;;;5.38;;
39188;SDS011;24915;50.858;4.376;2023-06-22T02:05:25;7.90;;;5.80;;
39188;SDS011;24915;50.858;4.376;2023-06-22T02:07:52;6.80;;;4.57;;
39188;SDS011;24915;50.858;4.376;2023-06-22T02:10:21;6.45;;;5.00;;
39188;SDS011;24915;50.858;4.376;2023-06-22T02:12:48;6.88;;;4.65;;
39188;SDS011;24915;50.858;4.376;2023-06-22T02:15:14;8.38;;;5.32;;
39188;SDS011;24915;50.858;4.376;2023-06-22T02:17:41;6.63;;;4.82;;
39188;SDS011;24915;50.858;4.376;2023-06-22T02:20:12;5.38;;;4.63;;
39188;SDS011;24915;50.858;4.376;2023-06-22T02:22:38;9.48;;;4.90;;
39188;SDS011;24915;50.858;4.376;2023-06-22T02:25:04;6.80;;;5.20;;
39188;SDS011;24915;50.858;4.376;2023-06-22T02:27:30;5.38;;;4.93;;
39188;SDS011;24915;50.858;4.376;2023-06-22T02:29:56;5.75;;;5.20;;
39188;SDS011;24915;50.858;4.376;2023-06-22T02:32:22;5.78;;;4.90;;
39188;SDS011;24915;50.858;4.376;2023-06-22T02:34:49;7.20;;;5.22;;
39188;SDS011;24915;50.858;4.376;2023-06-22T02:37:16;7.63;;;5.10;;
39188;SDS011;24915;50.858;4.376;2023-06-22T02:39:42;7.93;;;5.28;;
39188;SDS011;24915;50.858;4.376;2023-06-22T02:42:08;7.03;;;5.20;;
39188;SDS011;24915;50.858;4.376;2023-06-22T02:44:36;7.90;;;5.43;;
39188;SDS011;24915;50.858;4.376;2023-06-22T02:47:02;5.93;;;5.30;;
39188;SDS011;24915;50.858;4.376;2023-06-22T02:49:28;6.35;;;5.18;;
39188;SDS011;24915;50.858;4.376;2023-06-22T02:51:54;6.15;;;5.55;;
39188;SDS011;24915;50.858;4.376;2023-06-22T02:54:20;6.50;;;5.80;;
39188;SDS011;24915;50.858;4.376;2023-06-22T02:56:46;8.90;;;5.60;;
39188;SDS011;24915;50.858;4.376;2023-06-22T02:59:13;7.15;;;5.35;;
39188;SDS011;24915;50.858;4.376;2023-06-22T03:01:39;7.25;;;5.43;;
39188;SDS011;24915;50.858;4.376;2023-06-22T03:04:06;6.20;;;5.60;;
39188;SDS011;24915;50.858;4.376;2023-06-22T03:06:32;7.78;;;5.38;;
39188;SDS011;24915;50.858;4.376;2023-06-22T03:08:59;9.63;;;5.80;;
39188;SDS011;24915;50.858;4.376;2023-06-22T03:11:25;8.45;;;5.22;;
39188;SDS011;24915;50.858;4.376;2023-06-22T03:13:51;6.30;;;5.43;;
39188;SDS011;24915;50.858;4.376;2023-06-22T03:16:18;7.25;;;5.40;;
39188;SDS011;24915;50.858;4.376;2023-06-22T03:18:44;7.55;;;6.00;;
39188;SDS011;24915;50.858;4.376;2023-06-22T03:21:10;6.18;;;5.40;;
39188;SDS011;24915;50.858;4.376;2023-06-22T03:23:36;6.55;;;5.93;;
39188;SDS011;24915;50.858;4.376;2023-06-22T03:26:02;6.78;;;5.18;;
39188;SDS011;24915;50.858;4.376;2023-06-22T03:28:29;10.50;;;5.85;;
39188;SDS011;24915;50.858;4.376;2023-06-22T03:30:57;10.68;;;6.40;;
39188;SDS011;24915;50.858;4.376;2023-06-22T03:33:23;7.35;;;6.22;;
39188;SDS011;24915;50.858;4.376;2023-06-22T03:35:49;9.25;;;6.53;;
39188;SDS011;24915;50.858;4.376;2023-06-22T03:38:16;8.88;;;6.10;;
39188;SDS011;24915;50.858;4.376;2023-06-22T03:40:42;8.40;;;5.82;;
39188;SDS011;24915;50.858;4.376;2023-06-22T03:43:08;8.82;;;6.38;;
39188;SDS011;24915;50.858;4.376;2023-06-22T03:45:34;8.02;;;5.90;;
39188;SDS011;24915;50.858;4.376;2023-06-22T03:48:00;8.95;;;5.95;;
39188;SDS011;24915;50.858;4.376;2023-06-22T03:50:27;9.85;;;6.63;;
39188;SDS011;24915;50.858;4.376;2023-06-22T03:52:53;19.10;;;8.52;;
39188;SDS011;24915;50.858;4.376;2023-06-22T03:55:19;20.42;;;8.20;;
39188;SDS011;24915;50.858;4.376;2023-06-22T03:57:45;20.90;;;8.82;;
39188;SDS011;24915;50.858;4.376;2023-06-22T04:00:12;22.77;;;8.45;;
39188;SDS011;24915;50.858;4.376;2023-06-22T04:02:38;19.65;;;8.68;;
39188;SDS011;24915;50.858;4.376;2023-06-22T04:05:04;24.90;;;9.02;;
39188;SDS011;24915;50.858;4.376;2023-06-22T04:07:30;20.40;;;8.00;;
39188;SDS011;24915;50.858;4.376;2023-06-22T04:09:57;22.65;;;8.85;;
39188;SDS011;24915;50.858;4.376;2023-06-22T04:12:23;19.17;;;8.95;;
39188;SDS011;24915;50.858;4.376;2023-06-22T04:14:49;20.23;;;8.77;;
39188;SDS011;24915;50.858;4.376;2023-06-22T04:17:15;17.80;;;8.48;;
39188;SDS011;24915;50.858;4.376;2023-06-22T04:19:42;15.30;;;9.00;;
39188;SDS011;24915;50.858;4.376;2023-06-22T04:22:08;14.45;;;8.35;;
39188;SDS011;24915;50.858;4.376;2023-06-22T04:24:35;20.88;;;8.35;;
39188;SDS011;24915;50.858;4.376;2023-06-22T04:27:01;13.05;;;8.25;;
39188;SDS011;24915;50.858;4.376;2023-06-22T04:29:28;10.20;;;8.25;;
39188;SDS011;24915;50.858;4.376;2023-06-22T04:31:55;11.05;;;7.93;;
39188;SDS011;24915;50.858;4.376;2023-06-22T04:34:23;13.05;;;9.30;;
39188;SDS011;24915;50.858;4.376;2023-06-22T04:36:53;13.50;;;9.80;;
39188;SDS011;24915;50.858;4.376;2023-06-22T04:39:19;11.15;;;9.18;;
39188;SDS011;24915;50.858;4.376;2023-06-22T04:41:45;16.02;;;9.90;;
39188;SDS011;24915;50.858;4.376;2023-06-22T04:44:12;13.52;;;8.73;;
39188;SDS011;24915;50.858;4.376;2023-06-22T04:46:38;15.15;;;8.88;;
39188;SDS011;24915;50.858;4.376;2023-06-22T04:49:08;20.10;;;10.32;;
39188;SDS011;24915;50.858;4.376;2023-06-22T04:51:38;12.32;;;8.40;;
39188;SDS011;24915;50.858;4.376;2023-06-22T04:54:05;15.93;;;9.25;;
39188;SDS011;24915;50.858;4.376;2023-06-22T04:56:32;17.48;;;9.93;;
39188;SDS011;24915;50.858;4.376;2023-06-22T04:58:58;12.80;;;9.52;;
39188;SDS011;24915;50.858;4.376;2023-06-22T05:01:24;11.55;;;9.35;;
39188;SDS011;24915;50.858;4.376;2023-06-22T05:03:50;12.27;;;9.52;;
39188;SDS011;24915;50.858;4.376;2023-06-22T05:06:20;14.32;;;9.45;;
39188;SDS011;24915;50.858;4.376;2023-06-22T05:08:47;15.43;;;9.95;;
39188;SDS011;24915;50.858;4.376;2023-06-22T05:11:12;12.60;;;9.75;;
39188;SDS011;24915;50.858;4.376;2023-06-22T05:13:38;13.05;;;9.68;;
39188;SDS011;24915;50.858;4.376;2023-06-22T05:16:04;15.00;;;10.20;;
39188;SDS011;24915;50.858;4.376;2023-06-22T05:18:31;22.95;;;10.52;;
39188;SDS011;24915;50.858;4.376;2023-06-22T05:20:57;16.75;;;9.73;;
39188;SDS011;24915;50.858;4.376;2023-06-22T05:23:24;14.50;;;9.60;;
39188;SDS011;24915;50.858;4.376;2023-06-22T05:25:50;13.98;;;9.82;;
39188;SDS011;24915;50.858;4.376;2023-06-22T05:28:17;16.65;;;10.63;;
39188;SDS011;24915;50.858;4.376;2023-06-22T05:30:47;17.63;;;11.23;;
39188;SDS011;24915;50.858;4.376;2023-06-22T05:33:13;21.52;;;10.57;;
39188;SDS011;24915;50.858;4.376;2023-06-22T05:35:39;17.17;;;11.57;;
39188;SDS011;24915;50.858;4.376;2023-06-22T05:38:06;19.35;;;10.90;;
39188;SDS011;24915;50.858;4.376;2023-06-22T05:40:33;16.95;;;11.38;;
39188;SDS011;24915;50.858;4.376;2023-06-22T05:42:59;19.98;;;11.50;;
39188;SDS011;24915;50.858;4.376;2023-06-22T05:45:26;18.38;;;11.15;;
39188;SDS011;24915;50.858;4.376;2023-06-22T05:47:52;17.75;;;11.35;;
39188;SDS011;24915;50.858;4.376;2023-06-22T05:50:18;15.18;;;11.73;;
39188;SDS011;24915;50.858;4.376;2023-06-22T05:52:45;16.15;;;11.80;;
39188;SDS011;24915;50.858;4.376;2023-06-22T05:55:11;22.88;;;12.80;;
39188;SDS011;24915;50.858;4.376;2023-06-22T05:57:37;21.70;;;12.88;;
39188;SDS011;24915;50.858;4.376;2023-06-22T06:00:03;19.35;;;12.57;;
39188;SDS011;24915;50.858;4.376;2023-06-22T06:02:33;18.95;;;12.27;;
39188;SDS011;24915;50.858;4.376;2023-06-22T06:04:59;25.63;;;12.50;;
39188;SDS011;24915;50.858;4.376;2023-06-22T06:07:27;21.17;;;12.43;;
39188;SDS011;24915;50.858;4.376;2023-06-22T06:09:53;23.35;;;12.52;;
39188;SDS011;24915;50.858;4.376;2023-06-22T06:12:19;22.45;;;13.15;;
39188;SDS011;24915;50.858;4.376;2023-06-22T06:14:45;28.25;;;13.40;;
39188;SDS011;24915;50.858;4.376;2023-06-22T06:17:12;24.83;;;12.88;;
39188;SDS011;24915;50.858;4.376;2023-06-22T06:19:38;23.08;;;14.55;;
39188;SDS011;24915;50.858;4.376;2023-06-22T06:22:04;17.65;;;13.57;;
39188;SDS011;24915;50.858;4.376;2023-06-22T06:24:30;21.80;;;13.57;;
39188;SDS011;24915;50.858;4.376;2023-06-22T06:26:56;27.13;;;15.10;;
39188;SDS011;24915;50.858;4.376;2023-06-22T06:29:22;34.65;;;15.52;;
39188;SDS011;24915;50.858;4.376;2023-06-22T06:31:48;20.27;;;13.52;;
39188;SDS011;24915;50.858;4.376;2023-06-22T06:34:14;19.83;;;14.27;;
39188;SDS011;24915;50.858;4.376;2023-06-22T06:36:40;19.80;;;13.98;;
39188;SDS011;24915;50.858;4.376;2023-06-22T06:39:07;24.88;;;15.10;;
39188;SDS011;24915;50.858;4.376;2023-06-22T06:41:33;22.05;;;15.48;;
39188;SDS011;24915;50.858;4.376;2023-06-22T06:43:59;28.60;;;14.20;;
39188;SDS011;24915;50.858;4.376;2023-06-22T06:46:26;19.83;;;14.23;;
39188;SDS011;24915;50.858;4.376;2023-06-22T06:48:52;17.92;;;14.88;;
39188;SDS011;24915;50.858;4.376;2023-06-22T06:51:18;23.63;;;15.20;;
39188;SDS011;24915;50.858;4.376;2023-06-22T06:53:44;23.50;;;16.17;;
39188;SDS011;24915;50.858;4.376;2023-06-22T06:56:10;22.55;;;15.40;;
39188;SDS011;24915;50.858;4.376;2023-06-22T06:58:36;25.52;;;15.25;;
39188;SDS011;24915;50.858;4.376;2023-06-22T07:01:02;23.17;;;15.70;;
39188;SDS011;24915;50.858;4.376;2023-06-22T07:03:28;23.23;;;15.70;;
39188;SDS011;24915;50.858;4.376;2023-06-22T07:05:54;23.23;;;14.75;;
39188;SDS011;24915;50.858;4.376;2023-06-22T07:08:20;22.75;;;16.15;;
39188;SDS011;24915;50.858;4.376;2023-06-22T07:10:46;23.05;;;15.35;;
39188;SDS011;24915;50.858;4.376;2023-06-22T07:13:12;29.65;;;17.13;;
39188;SDS011;24915;50.858;4.376;2023-06-22T07:15:38;29.85;;;15.77;;
39188;SDS011;24915;50.858;4.376;2023-06-22T07:18:04;36.25;;;15.93;;
39188;SDS011;24915;50.858;4.376;2023-06-22T07:20:30;21.48;;;14.23;;
39188;SDS011;24915;50.858;4.376;2023-06-22T07:22:56;28.85;;;15.23;;
39188;SDS011;24915;50.858;4.376;2023-06-22T07:25:23;33.00;;;15.43;;
39188;SDS011;24915;50.858;4.376;2023-06-22T07:28:00;25.48;;;14.52;;
39188;SDS011;24915;50.858;4.376;2023-06-22T07:30:27;21.92;;;15.15;;
39188;SDS011;24915;50.858;4.376;2023-06-22T07:32:53;23.55;;;15.20;;
39188;SDS011;24915;50.858;4.376;2023-06-22T07:35:19;20.50;;;14.80;;
39188;SDS011;24915;50.858;4.376;2023-06-22T07:37:45;25.15;;;14.95;;
39188;SDS011;24915;50.858;4.376;2023-06-22T07:40:11;27.90;;;15.07;;
39188;SDS011;24915;50.858;4.376;2023-06-22T07:42:38;19.02;;;14.45;;
39188;SDS011;24915;50.858;4.376;2023-06-22T07:45:04;21.17;;;15.10;;
39188;SDS011;24915;50.858;4.376;2023-06-22T07:47:33;25.08;;;15.95;;
39188;SDS011;24915;50.858;4.376;2023-06-22T07:50:00;21.20;;;14.90;;
39188;SDS011;24915;50.858;4.376;2023-06-22T07:52:27;19.98;;;15.07;;
39188;SDS011;24915;50.858;4.376;2023-06-22T07:54:53;22.98;;;14.27;;
39188;SDS011;24915;50.858;4.376;2023-06-22T07:57:19;19.33;;;13.73;;
39188;SDS011;24915;50.858;4.376;2023-06-22T07:59:45;19.70;;;13.75;;
39188;SDS011;24915;50.858;4.376;2023-06-22T08:02:12;23.77;;;14.25;;
39188;SDS011;24915;50.858;4.376;2023-06-22T08:04:38;20.58;;;13.60;;
39188;SDS011;24915;50.858;4.376;2023-06-22T08:07:04;23.65;;;13.93;;
39188;SDS011;24915;50.858;4.376;2023-06-22T08:09:31;24.75;;;13.82;;
39188;SDS011;24915;50.858;4.376;2023-06-22T08:11:57;32.05;;;14.52;;
39188;SDS011;24915;50.858;4.376;2023-06-22T08:14:27;18.23;;;13.38;;
39188;SDS011;24915;50.858;4.376;2023-06-22T08:16:53;16.90;;;13.77;;
39188;SDS011;24915;50.858;4.376;2023-06-22T08:19:19;24.45;;;14.43;;
39188;SDS011;24915;50.858;4.376;2023-06-22T08:21:45;23.30;;;14.40;;
39188;SDS011;24915;50.858;4.376;2023-06-22T08:24:11;17.98;;;14.00;;
39188;SDS011;24915;50.858;4.376;2023-06-22T08:26:37;23.98;;;13.70;;
39188;SDS011;24915;50.858;4.376;2023-06-22T08:29:03;23.23;;;13.63;;
39188;SDS011;24915;50.858;4.376;2023-06-22T08:31:30;21.15;;;13.98;;
39188;SDS011;24915;50.858;4.376;2023-06-22T08:33:57;26.63;;;14.30;;
39188;SDS011;24915;50.858;4.376;2023-06-22T08:36:23;23.25;;;13.95;;
39188;SDS011;24915;50.858;4.376;2023-06-22T08:38:49;21.08;;;13.20;;
39188;SDS011;24915;50.858;4.376;2023-06-22T08:41:15;26.17;;;14.43;;
39188;SDS011;24915;50.858;4.376;2023-06-22T08:43:42;23.80;;;14.55;;
39188;SDS011;24915;50.858;4.376;2023-06-22T08:46:09;22.90;;;14.30;;
39188;SDS011;24915;50.858;4.376;2023-06-22T08:48:35;23.30;;;14.23;;
39188;SDS011;24915;50.858;4.376;2023-06-22T08:51:01;24.35;;;13.43;;
39188;SDS011;24915;50.858;4.376;2023-06-22T08:53:28;24.30;;;14.25;;
39188;SDS011;24915;50.858;4.376;2023-06-22T08:55:54;25.48;;;15.60;;
39188;SDS011;24915;50.858;4.376;2023-06-22T08:58:20;26.45;;;14.50;;
39188;SDS011;24915;50.858;4.376;2023-06-22T09:00:47;23.70;;;15.35;;
39188;SDS011;24915;50.858;4.376;2023-06-22T09:03:13;27.58;;;14.40;;
39188;SDS011;24915;50.858;4.376;2023-06-22T09:05:40;38.42;;;15.93;;
39188;SDS011;24915;50.858;4.376;2023-06-22T09:08:06;36.20;;;14.77;;
39188;SDS011;24915;50.858;4.376;2023-06-22T09:10:32;28.27;;;15.18;;
39188;SDS011;24915;50.858;4.376;2023-06-22T09:12:58;33.38;;;15.48;;
39188;SDS011;24915;50.858;4.376;2023-06-22T09:15:24;31.15;;;14.93;;
39188;SDS011;24915;50.858;4.376;2023-06-22T09:17:50;26.10;;;14.68;;
39188;SDS011;24915;50.858;4.376;2023-06-22T09:20:19;18.73;;;13.80;;
39188;SDS011;24915;50.858;4.376;2023-06-22T09:22:45;26.42;;;14.32;;
39188;SDS011;24915;50.858;4.376;2023-06-22T09:25:11;21.48;;;14.55;;
39188;SDS011;24915;50.858;4.376;2023-06-22T09:27:37;23.45;;;15.02;;
39188;SDS011;24915;50.858;4.376;2023-06-22T09:30:04;22.90;;;14.25;;
39188;SDS011;24915;50.858;4.376;2023-06-22T09:32:30;23.55;;;14.05;;
39188;SDS011;24915;50.858;4.376;2023-06-22T09:34:56;24.13;;;15.38;;
39188;SDS011;24915;50.858;4.376;2023-06-22T09:37:22;27.40;;;15.35;;
39188;SDS011;24915;50.858;4.376;2023-06-22T09:39:48;23.83;;;15.77;;
39188;SDS011;24915;50.858;4.376;2023-06-22T09:42:14;24.23;;;15.32;;
39188;SDS011;24915;50.858;4.376;2023-06-22T09:44:40;21.15;;;13.75;;
39188;SDS011;24915;50.858;4.376;2023-06-22T09:47:06;27.65;;;15.52;;
39188;SDS011;24915;50.858;4.376;2023-06-22T09:49:32;29.77;;;15.57;;
39188;SDS011;24915;50.858;4.376;2023-06-22T09:51:58;21.00;;;16.23;;
39188;SDS011;24915;50.858;4.376;2023-06-22T09:54:25;21.15;;;14.98;;
39188;SDS011;24915;50.858;4.376;2023-06-22T09:56:51;27.13;;;15.32;;
39188;SDS011;24915;50.858;4.376;2023-06-22T09:59:17;17.40;;;13.82;;
39188;SDS011;24915;50.858;4.376;2023-06-22T10:01:43;22.48;;;14.60;;
39188;SDS011;24915;50.858;4.376;2023-06-22T10:04:09;23.20;;;15.55;;
39188;SDS011;24915;50.858;4.376;2023-06-22T10:06:35;21.40;;;15.55;;
39188;SDS011;24915;50.858;4.376;2023-06-22T10:09:01;23.88;;;16.33;;
39188;SDS011;24915;50.858;4.376;2023-06-22T10:11:27;23.88;;;16.73;;
39188;SDS011;24915;50.858;4.376;2023-06-22T10:13:55;23.15;;;16.13;;
39188;SDS011;24915;50.858;4.376;2023-06-22T10:16:23;23.85;;;15.60;;
39188;SDS011;24915;50.858;4.376;2023-06-22T10:18:51;22.85;;;15.57;;
39188;SDS011;24915;50.858;4.376;2023-06-22T10:21:17;17.85;;;14.30;;
39188;SDS011;24915;50.858;4.376;2023-06-22T10:23:43;20.00;;;14.23;;
39188;SDS011;24915;50.858;4.376;2023-06-22T10:26:09;21.83;;;13.63;;
39188;SDS011;24915;50.858;4.376;2023-06-22T10:28:35;20.75;;;14.45;;
39188;SDS011;24915;50.858;4.376;2023-06-22T10:31:01;16.50;;;13.88;;
39188;SDS011;24915;50.858;4.376;2023-06-22T10:33:27;19.60;;;14.15;;
39188;SDS011;24915;50.858;4.376;2023-06-22T10:35:53;18.73;;;15.05;;
39188;SDS011;24915;50.858;4.376;2023-06-22T10:38:20;23.58;;;15.80;;
39188;SDS011;24915;50.858;4.376;2023-06-22T10:40:46;18.77;;;14.75;;
39188;SDS011;24915;50.858;4.376;2023-06-22T10:43:12;21.50;;;15.50;;
39188;SDS011;24915;50.858;4.376;2023-06-22T10:45:38;24.95;;;16.55;;
39188;SDS011;24915;50.858;4.376;2023-06-22T10:48:04;20.52;;;15.77;;
39188;SDS011;24915;50.858;4.376;2023-06-22T10:50:30;20.23;;;17.08;;
39188;SDS011;24915;50.858;4.376;2023-06-22T10:52:57;26.60;;;17.10;;
39188;SDS011;24915;50.858;4.376;2023-06-22T10:55:23;25.58;;;17.63;;
39188;SDS011;24915;50.858;4.376;2023-06-22T10:57:49;26.02;;;17.25;;
39188;SDS011;24915;50.858;4.376;2023-06-22T11:00:15;26.55;;;17.92;;
39188;SDS011;24915;50.858;4.376;2023-06-22T11:02:41;27.35;;;18.67;;
39188;SDS011;24915;50.858;4.376;2023-06-22T11:05:08;25.50;;;18.55;;
39188;SDS011;24915;50.858;4.376;2023-06-22T11:07:34;23.65;;;17.88;;
39188;SDS011;24915;50.858;4.376;2023-06-22T11:10:00;27.88;;;18.92;;
39188;SDS011;24915;50.858;4.376;2023-06-22T11:12:26;26.77;;;20.05;;
39188;SDS011;24915;50.858;4.376;2023-06-22T11:14:52;26.60;;;21.27;;
39188;SDS011;24915;50.858;4.376;2023-06-22T11:17:18;24.58;;;19.33;;
39188;SDS011;24915;50.858;4.376;2023-06-22T11:19:44;24.85;;;20.35;;
39188;SDS011;24915;50.858;4.376;2023-06-22T11:22:11;33.40;;;21.88;;
39188;SDS011;24915;50.858;4.376;2023-06-22T11:24:37;30.20;;;21.23;;
39188;SDS011;24915;50.858;4.376;2023-06-22T11:27:03;39.17;;;21.08;;
39188;SDS011;24915;50.858;4.376;2023-06-22T11:29:29;26.48;;;20.83;;
39188;SDS011;24915;50.858;4.376;2023-06-22T11:31:56;33.30;;;20.92;;
39188;SDS011;24915;50.858;4.376;2023-06-22T11:34:22;27.77;;;20.70;;
39188;SDS011;24915;50.858;4.376;2023-06-22T11:36:48;25.17;;;19.83;;
39188;SDS011;24915;50.858;4.376;2023-06-22T11:39:14;24.80;;;18.88;;
39188;SDS011;24915;50.858;4.376;2023-06-22T11:41:40;21.55;;;18.33;;
39188;SDS011;24915;50.858;4.376;2023-06-22T11:44:07;24.88;;;18.73;;
39188;SDS011;24915;50.858;4.376;2023-06-22T11:46:33;25.20;;;19.40;;
39188;SDS011;24915;50.858;4.376;2023-06-22T11:49:00;23.08;;;16.88;;
39188;SDS011;24915;50.858;4.376;2023-06-22T11:51:26;24.77;;;18.02;;
39188;SDS011;24915;50.858;4.376;2023-06-22T11:53:53;29.75;;;18.15;;
39188;SDS011;24915;50.858;4.376;2023-06-22T11:56:19;23.15;;;17.75;;
39188;SDS011;24915;50.858;4.376;2023-06-22T11:58:45;33.25;;;19.67;;
39188;SDS011;24915;50.858;4.376;2023-06-22T12:01:11;25.23;;;18.35;;
39188;SDS011;24915;50.858;4.376;2023-06-22T12:03:40;25.95;;;18.58;;
39188;SDS011;24915;50.858;4.376;2023-06-22T12:06:08;30.52;;;18.27;;
39188;SDS011;24915;50.858;4.376;2023-06-22T12:08:34;25.33;;;20.35;;
39188;SDS011;24915;50.858;4.376;2023-06-22T12:11:00;23.95;;;18.30;;
39188;SDS011;24915;50.858;4.376;2023-06-22T12:13:26;29.35;;;19.95;;
39188;SDS011;24915;50.858;4.376;2023-06-22T12:15:52;25.52;;;19.80;;
39188;SDS011;24915;50.858;4.376;2023-06-22T12:18:18;28.15;;;19.20;;
39188;SDS011;24915;50.858;4.376;2023-06-22T12:20:46;22.58;;;18.67;;
39188;SDS011;24915;50.858;4.376;2023-06-22T12:23:12;26.70;;;18.77;;
39188;SDS011;24915;50.858;4.376;2023-06-22T12:25:38;25.95;;;19.88;;
39188;SDS011;24915;50.858;4.376;2023-06-22T12:28:04;25.65;;;20.35;;
39188;SDS011;24915;50.858;4.376;2023-06-22T12:30:32;28.23;;;19.63;;
39188;SDS011;24915;50.858;4.376;2023-06-22T12:32:58;27.77;;;19.67;;
39188;SDS011;24915;50.858;4.376;2023-06-22T12:35:24;26.35;;;19.60;;
39188;SDS011;24915;50.858;4.376;2023-06-22T12:37:50;28.63;;;20.55;;
39188;SDS011;24915;50.858;4.376;2023-06-22T12:40:16;23.70;;;20.38;;
39188;SDS011;24915;50.858;4.376;2023-06-22T12:42:42;27.50;;;22.20;;
39188;SDS011;24915;50.858;4.376;2023-06-22T12:45:08;29.02;;;22.52;;
39188;SDS011;24915;50.858;4.376;2023-06-22T12:47:34;28.20;;;22.17;;
39188;SDS011;24915;50.858;4.376;2023-06-22T12:50:00;29.73;;;23.27;;
39188;SDS011;24915;50.858;4.376;2023-06-22T12:52:26;30.65;;;22.48;;
39188;SDS011;24915;50.858;4.376;2023-06-22T12:54:52;33.03;;;23.73;;
39188;SDS011;24915;50.858;4.376;2023-06-22T12:57:19;31.42;;;22.83;;
39188;SDS011;24915;50.858;4.376;2023-06-22T12:59:45;29.13;;;22.67;;
39188;SDS011;24915;50.858;4.376;2023-06-22T13:02:11;39.35;;;23.55;;
39188;SDS011;24915;50.858;4.376;2023-06-22T13:04:38;30.65;;;23.20;;
39188;SDS011;24915;50.858;4.376;2023-06-22T13:07:04;32.90;;;22.90;;
39188;SDS011;24915;50.858;4.376;2023-06-22T13:09:30;30.85;;;25.55;;
39188;SDS011;24915;50.858;4.376;2023-06-22T13:11:56;35.55;;;25.70;;
39188;SDS011;24915;50.858;4.376;2023-06-22T13:14:22;34.78;;;26.75;;
39188;SDS011;24915;50.858;4.376;2023-06-22T13:16:49;35.17;;;25.88;;
39188;SDS011;24915;50.858;4.376;2023-06-22T13:19:15;34.17;;;26.48;;
39188;SDS011;24915;50.858;4.376;2023-06-22T13:21:41;33.28;;;27.20;;
39188;SDS011;24915;50.858;4.376;2023-06-22T13:24:07;34.97;;;27.75;;
39188;SDS011;24915;50.858;4.376;2023-06-22T13:26:33;34.83;;;27.58;;
39188;SDS011;24915;50.858;4.376;2023-06-22T13:28:59;37.22;;;28.80;;
39188;SDS011;24915;50.858;4.376;2023-06-22T13:31:25;42.17;;;28.08;;
39188;SDS011;24915;50.858;4.376;2023-06-22T13:33:51;37.85;;;27.63;;
39188;SDS011;24915;50.858;4.376;2023-06-22T13:36:18;34.78;;;26.60;;
39188;SDS011;24915;50.858;4.376;2023-06-22T13:38:44;33.38;;;25.73;;
39188;SDS011;24915;50.858;4.376;2023-06-22T13:41:10;36.70;;;25.52;;
39188;SDS011;24915;50.858;4.376;2023-06-22T13:43:36;35.13;;;26.30;;
39188;SDS011;24915;50.858;4.376;2023-06-22T13:46:02;34.30;;;26.08;;
39188;SDS011;24915;50.858;4.376;2023-06-22T13:48:28;33.33;;;25.65;;
39188;SDS011;24915;50.858;4.376;2023-06-22T13:50:56;35.33;;;24.90;;
39188;SDS011;24915;50.858;4.376;2023-06-22T13:53:22;31.50;;;25.70;;
39188;SDS011;24915;50.858;4.376;2023-06-22T13:55:48;33.00;;;25.25;;
39188;SDS011;24915;50.858;4.376;2023-06-22T13:58:14;30.35;;;24.65;;
39188;SDS011;24915;50.858;4.376;2023-06-22T14:00:40;36.95;;;23.65;;
39188;SDS011;24915;50.858;4.376;2023-06-22T14:03:06;30.40;;;23.98;;
39188;SDS011;24915;50.858;4.376;2023-06-22T14:05:32;30.77;;;23.20;;
39188;SDS011;24915;50.858;4.376;2023-06-22T14:07:58;28.92;;;22.80;;
39188;SDS011;24915;50.858;4.376;2023-06-22T14:10:24;29.15;;;23.75;;
39188;SDS011;24915;50.858;4.376;2023-06-22T14:12:50;29.73;;;22.80;;
39188;SDS011;24915;50.858;4.376;2023-06-22T14:15:18;28.70;;;23.05;;
39188;SDS011;24915;50.858;4.376;2023-06-22T14:17:44;30.98;;;24.05;;
39188;SDS011;24915;50.858;4.376;2023-06-22T14:20:10;30.58;;;24.67;;
39188;SDS011;24915;50.858;4.376;2023-06-22T14:22:36;30.20;;;24.33;;
39188;SDS011;24915;50.858;4.376;2023-06-22T14:25:04;30.70;;;22.95;;
39188;SDS011;24915;50.858;4.376;2023-06-22T14:27:31;31.60;;;24.92;;
39188;SDS011;24915;50.858;4.376;2023-06-22T14:29:58;32.88;;;24.80;;
39188;SDS011;24915;50.858;4.376;2023-06-22T14:32:27;28.52;;;24.48;;
39188;SDS011;24915;50.858;4.376;2023-06-22T14:34:55;30.52;;;24.55;;